createdAt,value
2022-09-12T00:01:20.261Z,98241.13
2022-09-12T00:04:07.671Z,98240.23
2022-09-12T00:06:55.590Z,98237.67
2022-09-12T00:09:42.821Z,98238.03
2022-09-12T00:12:30.135Z,98235.92
2022-09-12T00:15:17.376Z,98237.97
2022-09-12T00:18:04.679Z,98231.74
2022-09-12T00:20:52.222Z,98240.09
2022-09-12T00:23:39.389Z,98246.78
2022-09-12T00:26:26.982Z,98240.83
2022-09-12T00:29:19.839Z,98249.73
2022-09-12T00:32:06.806Z,98245.72
2022-09-12T00:34:54.351Z,98245.54
2022-09-12T00:37:41.320Z,98247.33
2022-09-12T00:40:28.806Z,98249.36
2022-09-12T00:43:18.207Z,98243.41
2022-09-12T00:46:23.815Z,98238.58
2022-09-12T00:49:17.231Z,98234.31
2022-09-12T00:52:13.618Z,98238.80
2022-09-12T00:55:12.583Z,98238.62
2022-09-12T00:58:11.046Z,98237.87
2022-09-12T01:00:59.125Z,98236.87
2022-09-12T01:03:46.571Z,98234.72
2022-09-12T01:06:38.398Z,98244.81
2022-09-12T01:09:26.921Z,98250.12
2022-09-12T01:12:15.743Z,98243.28
2022-09-12T01:15:03.143Z,98247.71
2022-09-12T01:17:58.993Z,98246.91
2022-09-12T01:21:00.281Z,98243.62
2022-09-12T01:24:22.312Z,98256.37
2022-09-12T01:27:28.071Z,98256.95
2022-09-12T01:30:24.472Z,98251.00
2022-09-12T01:33:23.783Z,98246.94
2022-09-12T01:36:30.585Z,98249.34
2022-09-12T01:39:33.055Z,98248.23
2022-09-12T01:42:29.147Z,98245.98
2022-09-12T01:45:25.237Z,98246.80
2022-09-12T01:48:15.713Z,98246.86
2022-09-12T01:51:20.826Z,98243.08
2022-09-12T01:54:13.687Z,98250.27
2022-09-12T01:57:02.855Z,98251.70
2022-09-12T01:59:52.239Z,98247.36
2022-09-12T02:02:42.096Z,98244.93
2022-09-12T02:05:44.126Z,98249.31
2022-09-12T02:08:34.493Z,98240.28
2022-09-12T02:11:21.807Z,98241.16
2022-09-12T02:14:12.072Z,98244.12
2022-09-12T02:17:23.664Z,98243.34
2022-09-12T02:20:31.086Z,98243.39
2022-09-12T02:23:08.455Z,98244.78
2022-09-12T02:25:58.168Z,98253.52
2022-09-12T02:28:46.357Z,98253.07
2022-09-12T02:31:42.447Z,98253.31
2022-09-12T02:34:46.082Z,98251.39
2022-09-12T02:37:36.487Z,98253.30
2022-09-12T02:40:25.688Z,98247.25
2022-09-12T02:43:13.155Z,98238.45
2022-09-12T02:46:00.691Z,98249.59
2022-09-12T02:48:48.246Z,98247.74
2022-09-12T02:51:35.503Z,98255.25
2022-09-12T02:54:22.751Z,98255.22
2022-09-12T02:57:23.283Z,98254.20
2022-09-12T03:00:10.061Z,98256.95
2022-09-12T03:03:11.903Z,98253.99
2022-09-12T03:06:02.151Z,98258.36
2022-09-12T03:09:13.008Z,98259.78
2022-09-12T03:12:21.500Z,98263.48
2022-09-12T03:15:23.734Z,98273.19
2022-09-12T03:18:28.656Z,98274.38
2022-09-12T03:21:27.966Z,98276.20
2022-09-12T03:24:24.247Z,98281.86
2022-09-12T03:30:01.818Z,98285.11
2022-09-12T03:32:51.345Z,98284.62
2022-09-12T03:35:38.983Z,98292.34
2022-09-12T03:38:26.191Z,98299.17
2022-09-12T03:41:13.592Z,98300.47
2022-09-12T03:44:00.831Z,98302.17
2022-09-12T03:46:48.375Z,98301.36
2022-09-12T03:49:35.894Z,98299.94
2022-09-12T03:52:23.193Z,98303.75
2022-09-12T03:55:11.458Z,98298.98
2022-09-12T03:57:58.719Z,98302.30
2022-09-12T04:00:46.159Z,98300.36
2022-09-12T04:03:33.431Z,98301.94
2022-09-12T04:06:23.055Z,98304.64
2022-09-12T04:09:10.447Z,98306.83
2022-09-12T04:11:57.783Z,98303.83
2022-09-12T04:14:44.911Z,98304.48
2022-09-12T04:17:32.271Z,98306.13
2022-09-12T04:20:19.634Z,98310.83
2022-09-12T04:23:07.025Z,98316.50
2022-09-12T04:25:59.879Z,98318.03
2022-09-12T04:28:47.999Z,98317.63
2022-09-12T04:31:35.303Z,98313.95
2022-09-12T04:34:23.528Z,98318.27
2022-09-12T04:37:11.888Z,98319.89
2022-09-12T04:39:59.691Z,98317.22
2022-09-12T04:42:47.007Z,98320.53
2022-09-12T04:45:34.957Z,98320.83
2022-09-12T04:48:22.800Z,98323.02
2022-09-12T04:51:13.864Z,98315.52
2022-09-12T04:54:04.386Z,98323.90
2022-09-12T04:56:51.703Z,98318.39
2022-09-12T04:59:40.056Z,98327.11
2022-09-12T05:02:27.585Z,98326.39
2022-09-12T05:05:15.381Z,98334.14
2022-09-12T05:08:03.001Z,98333.34
2022-09-12T05:10:50.247Z,98338.98
2022-09-12T05:13:38.055Z,98341.41
2022-09-12T05:16:26.814Z,98338.03
2022-09-12T05:19:13.918Z,98339.89
2022-09-12T05:22:01.863Z,98338.77
2022-09-12T05:24:50.765Z,98339.14
2022-09-12T05:27:38.391Z,98344.19
2022-09-12T05:30:25.673Z,98352.84
2022-09-12T05:33:12.967Z,98353.22
2022-09-12T05:36:00.928Z,98354.45
2022-09-12T05:38:49.240Z,98349.96
2022-09-12T05:41:36.927Z,98359.61
2022-09-12T05:44:25.064Z,98357.18
2022-09-12T05:47:13.359Z,98354.61
2022-09-12T05:50:00.951Z,98345.10
2022-09-12T05:52:48.024Z,98344.63
2022-09-12T05:55:35.409Z,98345.30
2022-09-12T05:58:23.239Z,98346.05
2022-09-12T06:01:18.286Z,98343.30
2022-09-12T06:04:06.719Z,98339.20
2022-09-12T06:06:54.270Z,98336.34
2022-09-12T06:09:42.424Z,98330.78
2022-09-12T06:12:32.648Z,98332.06
2022-09-12T06:15:19.494Z,98334.85
2022-09-12T06:18:07.303Z,98336.65
2022-09-12T06:20:54.871Z,98341.12
2022-09-12T06:23:42.760Z,98340.94
2022-09-12T06:26:30.631Z,98338.57
2022-09-12T06:29:19.447Z,98345.08
2022-09-12T06:32:07.455Z,98353.73
2022-09-12T06:34:54.936Z,98348.84
2022-09-12T06:37:42.015Z,98358.77
2022-09-12T06:40:29.935Z,98354.64
2022-09-12T06:43:17.151Z,98355.20
2022-09-12T06:46:05.207Z,98366.89
2022-09-12T06:48:52.792Z,98359.44
2022-09-12T06:51:41.783Z,98362.87
2022-09-12T06:54:29.408Z,98352.98
2022-09-12T06:57:18.008Z,98359.51
2022-09-12T07:00:06.713Z,98359.22
2022-09-12T07:02:57.519Z,98360.33
2022-09-12T07:05:44.112Z,98355.31
2022-09-12T07:08:31.803Z,98368.37
2022-09-12T07:11:21.659Z,98371.52
2022-09-12T07:14:10.856Z,98366.55
2022-09-12T07:16:58.463Z,98366.27
2022-09-12T07:19:45.671Z,98372.52
2022-09-12T07:22:33.071Z,98372.93
2022-09-12T07:25:20.472Z,98371.70
2022-09-12T07:28:07.687Z,98372.59
2022-09-12T07:30:56.021Z,98370.73
2022-09-12T07:33:44.473Z,98360.19
2022-09-12T07:36:32.000Z,98362.73
2022-09-12T07:39:19.481Z,98375.17
2022-09-12T07:42:07.198Z,98378.37
2022-09-12T07:44:54.561Z,98385.02
2022-09-12T07:47:42.033Z,98394.62
2022-09-12T07:50:29.071Z,98385.12
2022-09-12T07:53:16.549Z,98383.73
2022-09-12T07:56:05.606Z,98393.19
2022-09-12T07:58:53.175Z,98393.49
2022-09-12T08:01:41.701Z,98397.17
2022-09-12T08:04:30.567Z,98400.98
2022-09-12T08:07:19.351Z,98390.78
2022-09-12T08:10:07.305Z,98390.70
2022-09-12T08:12:54.695Z,98395.22
2022-09-12T08:15:42.025Z,98408.63
2022-09-12T08:18:30.063Z,98400.22
2022-09-12T08:21:20.007Z,98397.88
2022-09-12T08:24:07.993Z,98402.34
2022-09-12T08:26:55.623Z,98406.76
2022-09-12T08:29:43.063Z,98405.95
2022-09-12T08:32:30.735Z,98404.72
2022-09-12T08:35:18.022Z,98396.42
2022-09-12T08:38:05.375Z,98406.88
2022-09-12T08:40:54.913Z,98406.09
2022-09-12T08:44:00.104Z,98398.16
2022-09-12T08:47:08.832Z,98396.55
2022-09-12T08:50:20.969Z,98396.59
2022-09-12T08:53:15.976Z,98404.85
2022-09-12T08:56:04.214Z,98405.17
2022-09-12T08:58:51.984Z,98393.63
2022-09-12T09:01:44.634Z,98404.73
2022-09-12T09:04:38.120Z,98411.34
2022-09-12T09:07:55.818Z,98397.70
2022-09-12T09:10:53.034Z,98397.99
2022-09-12T09:14:04.875Z,98404.62
2022-09-12T09:16:51.249Z,98401.25
2022-09-12T09:19:42.135Z,98401.14
2022-09-12T09:22:33.134Z,98402.15
2022-09-12T09:25:25.617Z,98397.20
2022-09-12T09:28:16.076Z,98398.98
2022-09-12T09:31:03.417Z,98406.80
2022-09-12T09:33:55.270Z,98404.76
2022-09-12T09:36:45.264Z,98406.14
2022-09-12T09:39:53.822Z,98433.87
2022-09-12T09:42:59.839Z,98412.69
2022-09-12T09:45:48.023Z,98420.38
2022-09-12T09:48:37.472Z,98413.03
2022-09-12T09:51:31.247Z,98420.91
2022-09-12T09:54:22.886Z,98421.76
2022-09-12T09:57:39.087Z,98432.25
2022-09-12T10:00:37.652Z,98419.10
2022-09-12T10:03:36.258Z,98432.02
2022-09-12T10:09:22.167Z,98425.63
2022-09-12T10:12:24.255Z,98431.52
2022-09-12T10:15:25.623Z,98437.89
2022-09-12T10:20:53.512Z,98447.86
2022-09-12T10:23:41.528Z,98439.28
2022-09-12T10:26:32.029Z,98439.74
2022-09-12T10:29:22.424Z,98452.55
2022-09-12T10:32:08.991Z,98454.52
2022-09-12T10:34:59.583Z,98444.25
2022-09-12T10:38:04.633Z,98449.06
2022-09-12T10:40:58.095Z,98440.32
2022-09-12T10:43:45.582Z,98457.72
2022-09-12T10:46:33.071Z,98457.81
2022-09-12T10:49:31.472Z,98448.08
2022-09-12T10:55:03.042Z,98448.09
2022-09-12T10:58:05.623Z,98455.83
2022-09-12T11:00:55.887Z,98460.20
2022-09-12T11:04:20.287Z,98459.31
2022-09-12T11:07:26.103Z,98466.81
2022-09-12T11:10:47.320Z,98470.51
2022-09-12T11:13:43.992Z,98469.04
2022-09-12T11:16:52.066Z,98466.54
2022-09-12T11:19:42.735Z,98461.72
2022-09-12T11:22:32.966Z,98476.30
2022-09-12T11:25:39.768Z,98467.91
2022-09-12T11:31:25.098Z,98471.59
2022-09-12T11:34:13.359Z,98474.16
2022-09-12T11:37:28.008Z,98474.92
2022-09-12T11:40:39.582Z,98470.69
2022-09-12T11:43:46.884Z,98464.98
2022-09-12T11:46:40.034Z,98464.27
2022-09-12T11:49:38.683Z,98464.72
2022-09-12T11:52:28.127Z,98467.40
2022-09-12T11:55:24.799Z,98467.30
2022-09-12T11:58:13.567Z,98475.39
2022-09-12T12:01:21.039Z,98475.50
2022-09-12T12:04:11.551Z,98471.34
2022-09-12T12:07:01.633Z,98469.73
2022-09-12T12:09:51.706Z,98473.63
2022-09-12T12:12:39.442Z,98480.48
2022-09-12T12:15:27.767Z,98479.57
2022-09-12T12:18:20.966Z,98479.67
2022-09-12T12:21:40.161Z,98476.34
2022-09-12T12:24:29.248Z,98477.95
2022-09-12T12:27:47.720Z,98475.76
2022-09-12T12:30:38.288Z,98480.95
2022-09-12T12:33:31.623Z,98474.36
2022-09-12T12:36:34.217Z,98482.22
2022-09-12T12:39:36.545Z,98483.16
2022-09-12T12:42:35.972Z,98478.02
2022-09-12T12:45:31.873Z,98484.37
2022-09-12T12:48:21.715Z,98481.50
2022-09-12T12:51:34.680Z,98479.08
2022-09-12T12:54:37.030Z,98482.53
2022-09-12T12:57:27.665Z,98491.58
2022-09-12T13:00:28.041Z,98482.77
2022-09-12T13:03:29.287Z,98485.00
2022-09-12T13:06:40.127Z,98481.41
2022-09-12T13:09:35.898Z,98478.42
2022-09-12T13:12:31.656Z,98483.51
2022-09-12T13:15:40.065Z,98475.39
2022-09-12T13:21:14.567Z,98472.03
2022-09-12T13:24:04.840Z,98475.81
2022-09-12T13:26:53.670Z,98478.70
2022-09-12T13:29:42.285Z,98474.20
2022-09-12T13:32:30.027Z,98472.55
2022-09-12T13:35:37.224Z,98474.99
2022-09-12T13:38:30.321Z,98467.70
2022-09-12T13:41:44.809Z,98473.29
2022-09-12T13:44:32.984Z,98465.78
2022-09-12T13:50:17.913Z,98467.98
2022-09-12T13:53:08.214Z,98464.88
2022-09-12T13:55:58.793Z,98472.27
2022-09-12T13:58:57.484Z,98471.53
2022-09-12T14:01:47.362Z,98473.67
2022-09-12T14:04:52.608Z,98467.86
2022-09-12T14:07:53.672Z,98480.62
2022-09-12T14:10:45.426Z,98467.33
2022-09-12T14:13:33.149Z,98468.47
2022-09-12T14:16:21.976Z,98470.45
2022-09-12T14:19:12.471Z,98468.16
2022-09-12T14:22:01.496Z,98468.05
2022-09-12T14:24:52.511Z,98470.05
2022-09-12T14:27:46.607Z,98482.45
2022-09-12T14:30:38.041Z,98475.83
2022-09-12T14:33:25.535Z,98484.87
2022-09-12T14:36:33.793Z,98470.51
2022-09-12T14:39:41.984Z,98473.98
2022-09-12T14:42:31.273Z,98479.09
2022-09-12T14:48:16.744Z,98480.84
2022-09-12T14:51:04.673Z,98474.56
2022-09-12T14:53:52.167Z,98477.22
2022-09-12T14:56:44.817Z,98474.06
2022-09-12T14:59:38.018Z,98478.34
2022-09-12T15:02:28.696Z,98485.78
2022-09-12T15:05:24.784Z,98492.99
2022-09-12T15:08:15.948Z,98487.67
2022-09-12T15:11:03.039Z,98481.52
2022-09-12T15:13:50.242Z,98480.48
2022-09-12T15:16:39.113Z,98477.81
2022-09-12T15:19:26.628Z,98477.36
2022-09-12T15:22:16.656Z,98469.48
2022-09-12T15:25:04.343Z,98472.02
2022-09-12T15:27:56.304Z,98470.63
2022-09-12T15:30:44.067Z,98462.33
2022-09-12T15:33:31.615Z,98457.11
2022-09-12T15:36:21.246Z,98456.16
2022-09-12T15:39:09.810Z,98462.45
2022-09-12T15:41:56.968Z,98465.58
2022-09-12T15:44:44.848Z,98468.16
2022-09-12T15:47:32.433Z,98463.34
2022-09-12T15:50:20.175Z,98471.09
2022-09-12T15:53:08.976Z,98480.47
2022-09-12T15:55:56.071Z,98475.19
2022-09-12T15:58:57.577Z,98472.58
2022-09-12T16:01:32.766Z,98477.13
2022-09-12T16:04:28.583Z,98471.38
2022-09-12T16:07:19.016Z,98479.67
2022-09-12T16:10:07.455Z,98481.27
2022-09-12T16:12:54.974Z,98479.73
2022-09-12T16:15:42.762Z,98482.55
2022-09-12T16:18:31.599Z,98488.12
2022-09-12T16:21:19.608Z,98486.28
2022-09-12T16:24:07.482Z,98495.39
2022-09-12T16:26:57.938Z,98494.44
2022-09-12T16:29:43.656Z,98488.16
2022-09-12T16:32:30.952Z,98488.07
2022-09-12T16:35:18.650Z,98488.34
2022-09-12T16:38:06.144Z,98486.77
2022-09-12T16:40:53.855Z,98497.01
2022-09-12T16:43:42.921Z,98496.12
2022-09-12T16:46:30.398Z,98498.94
2022-09-12T16:49:19.537Z,98491.52
2022-09-12T16:52:07.879Z,98495.49
2022-09-12T16:54:55.544Z,98494.34
2022-09-12T16:57:42.575Z,98494.92
2022-09-12T17:00:29.722Z,98496.69
2022-09-12T17:03:17.445Z,98497.08
2022-09-12T17:06:07.968Z,98491.05
2022-09-12T17:09:01.407Z,98489.63
2022-09-12T17:11:50.663Z,98491.53
2022-09-12T17:14:39.683Z,98488.47
2022-09-12T17:17:26.919Z,98487.73
2022-09-12T17:20:14.064Z,98485.88
2022-09-12T17:23:01.431Z,98488.16
2022-09-12T17:25:54.808Z,98492.36
2022-09-12T17:28:42.279Z,98501.77
2022-09-12T17:31:29.678Z,98504.42
2022-09-12T17:34:18.006Z,98507.91
2022-09-12T17:37:05.520Z,98513.86
2022-09-12T17:39:53.129Z,98512.30
2022-09-12T17:42:43.431Z,98516.26
2022-09-12T17:45:31.423Z,98523.80
2022-09-12T17:48:19.641Z,98526.97
2022-09-12T17:51:11.513Z,98527.22
2022-09-12T17:54:01.247Z,98527.70
2022-09-12T17:56:49.918Z,98530.97
2022-09-12T17:59:37.481Z,98528.11
2022-09-12T18:02:29.333Z,98522.11
2022-09-12T18:05:15.887Z,98525.69
2022-09-12T18:08:06.087Z,98535.11
2022-09-12T18:10:53.687Z,98533.97
2022-09-12T18:13:40.916Z,98534.20
2022-09-12T18:16:31.774Z,98529.25
2022-09-12T18:19:22.304Z,98533.73
2022-09-12T18:22:14.160Z,98525.45
2022-09-12T18:25:01.953Z,98524.30
2022-09-12T18:27:49.632Z,98523.73
2022-09-12T18:30:37.224Z,98531.12
2022-09-12T18:33:24.744Z,98534.66
2022-09-12T18:36:13.544Z,98536.23
2022-09-12T18:39:03.215Z,98538.66
2022-09-12T18:41:50.751Z,98538.33
2022-09-12T18:44:38.362Z,98538.52
2022-09-12T18:47:25.841Z,98541.09
2022-09-12T18:50:13.225Z,98539.61
2022-09-12T18:53:00.639Z,98538.31
2022-09-12T18:55:47.992Z,98537.98
2022-09-12T18:58:36.360Z,98535.72
2022-09-12T19:01:28.846Z,98539.55
2022-09-12T19:04:16.719Z,98533.14
2022-09-12T19:07:07.316Z,98532.25
2022-09-12T19:09:54.760Z,98534.20
2022-09-12T19:12:42.015Z,98537.42
2022-09-12T19:15:29.207Z,98537.50
2022-09-12T19:18:18.884Z,98542.70
2022-09-12T19:21:07.088Z,98545.70
2022-09-12T19:23:59.503Z,98540.66
2022-09-12T19:26:47.191Z,98541.42
2022-09-12T19:29:35.143Z,98546.38
2022-09-12T19:32:22.335Z,98543.04
2022-09-12T19:35:12.027Z,98538.20
2022-09-12T19:37:59.576Z,98542.03
2022-09-12T19:40:48.671Z,98541.75
2022-09-12T19:43:36.148Z,98541.89
2022-09-12T19:46:25.311Z,98537.42
2022-09-12T19:49:13.803Z,98537.77
2022-09-12T19:52:01.607Z,98536.33
2022-09-12T19:54:48.865Z,98529.77
2022-09-12T19:57:36.137Z,98534.14
2022-09-12T20:00:23.632Z,98535.00
2022-09-12T20:03:12.097Z,98528.77
2022-09-12T20:06:04.689Z,98531.58
2022-09-12T20:08:52.183Z,98525.19
2022-09-12T20:11:39.848Z,98531.00
2022-09-12T20:14:27.415Z,98532.95
2022-09-12T20:17:15.176Z,98528.91
2022-09-12T20:20:02.656Z,98525.62
2022-09-12T20:22:53.682Z,98524.81
2022-09-12T20:25:41.512Z,98518.92
2022-09-12T20:28:29.032Z,98523.30
2022-09-12T20:31:17.327Z,98522.19
2022-09-12T20:34:05.544Z,98515.84
2022-09-12T20:36:52.816Z,98514.08
2022-09-12T20:39:40.425Z,98521.20
2022-09-12T20:42:27.737Z,98514.02
2022-09-12T20:45:15.222Z,98509.31
2022-09-12T20:48:03.038Z,98507.12
2022-09-12T20:50:50.479Z,98503.84
2022-09-12T20:53:38.010Z,98506.94
2022-09-12T20:56:27.295Z,98504.50
2022-09-12T20:59:17.632Z,98515.11
2022-09-12T21:02:05.915Z,98512.02
2022-09-12T21:04:53.609Z,98507.08
2022-09-12T21:07:41.256Z,98510.16
2022-09-12T21:10:28.887Z,98507.41
2022-09-12T21:13:16.616Z,98507.08
2022-09-12T21:16:06.997Z,98503.75
2022-09-12T21:18:56.582Z,98494.84
2022-09-12T21:21:43.962Z,98497.03
2022-09-12T21:24:31.175Z,98501.41
2022-09-12T21:27:18.690Z,98504.80
2022-09-12T21:30:06.623Z,98507.41
2022-09-12T21:32:54.016Z,98503.32
2022-09-12T21:35:41.625Z,98501.45
2022-09-12T21:38:30.507Z,98496.32
2022-09-12T21:41:18.646Z,98497.70
2022-09-12T21:44:05.719Z,98493.95
2022-09-12T21:46:53.331Z,98486.00
2022-09-12T21:49:40.528Z,98482.67
2022-09-12T21:52:28.289Z,98483.00
2022-09-12T21:55:16.169Z,98476.67
2022-09-12T21:58:03.656Z,98481.05
2022-09-12T22:00:51.696Z,98483.23
2022-09-12T22:03:41.855Z,98479.16
2022-09-12T22:06:29.361Z,98470.45
2022-09-12T22:09:17.714Z,98478.44
2022-09-12T22:12:05.367Z,98478.11
2022-09-12T22:14:54.497Z,98478.86
2022-09-12T22:17:42.206Z,98487.62
2022-09-12T22:20:29.664Z,98487.81
2022-09-12T22:23:35.152Z,98477.02
2022-09-12T22:26:22.681Z,98477.83
2022-09-12T22:29:10.328Z,98482.77
2022-09-12T22:32:24.431Z,98478.45
2022-09-12T22:35:11.719Z,98475.92
2022-09-12T22:37:59.361Z,98468.84
2022-09-12T22:40:48.494Z,98474.05
2022-09-12T22:43:36.887Z,98470.73
2022-09-12T22:46:24.495Z,98472.92
2022-09-12T22:49:11.919Z,98465.37
2022-09-12T22:51:59.408Z,98470.89
2022-09-12T22:54:46.842Z,98468.94
2022-09-12T22:57:34.128Z,98459.99
2022-09-12T23:00:21.435Z,98456.56
2022-09-12T23:03:08.524Z,98460.79
2022-09-12T23:05:55.799Z,98466.03
2022-09-12T23:08:43.299Z,98463.92
2022-09-12T23:11:30.639Z,98472.44
2022-09-12T23:14:18.183Z,98468.06
2022-09-12T23:17:05.209Z,98459.79
2022-09-12T23:19:52.770Z,98460.11
2022-09-12T23:22:40.382Z,98459.69
2022-09-12T23:25:27.839Z,98453.66
2022-09-12T23:28:14.863Z,98452.36
2022-09-12T23:31:02.351Z,98448.80
2022-09-12T23:33:50.271Z,98448.80
2022-09-12T23:36:37.785Z,98452.13
2022-09-12T23:39:25.124Z,98446.61
2022-09-12T23:42:12.216Z,98447.14
2022-09-12T23:44:59.783Z,98446.09
2022-09-12T23:47:47.024Z,98442.28
2022-09-12T23:50:34.255Z,98440.66
2022-09-12T23:53:22.391Z,98440.72
2022-09-12T23:56:09.779Z,98442.04
2022-09-12T23:58:57.169Z,98444.80
